M I D A S
Marine Information and Data Acquisition System
Tripno 999 of the Zeeleeuw from 2005-07-19 09:09:39 to 2005-07-19 12:50:50
Back to CruiseResearch ActivitiesStationsMapUnderway DataData graphs

EquipmentUnitsComment
TimeDGPSUTC
LatitudeDGPSDM.mWGS84
LongitudeDGPSDM.mWGS84
HeadingGyrodeg 
SOGDGPSknotsSpeed over ground
COGDGPSdegCourse over ground
DepthEcho soundermeters200 kHz
Missing or incorrect values are displayed as -999
Navigation data collected by the RV Zeeleeuw from 2005-07-19 09:11:16 to 2005-07-19 12:57:17
Time Latitude Longitude Heading SOG COG Depth
2005-07-19 09:12:23 51°13.625 2°56.031 110.2 2.3 289 -999
2005-07-19 09:13:23 51°13.648 2°55.93 115.6 4.4 290 -999
2005-07-19 09:14:21 51°13.686 2°55.822 128.2 5.2 305 -999
2005-07-19 09:15:23 51°13.748 2°55.717 147.5 5.3 322 -999
2005-07-19 09:16:21 51°13.827 2°55.655 165.1 5.5 341 -999
2005-07-19 09:17:22 51°13.91 2°55.644 194.5 4.5 10 -999
2005-07-19 09:18:21 51°13.95 2°55.664 215.9 0.6 8 13.7
2005-07-19 09:19:21 51°13.949 2°55.628 277.9 1.9 271 13.8
2005-07-19 09:20:22 51°14.014 2°55.53 328 7.7 326 13.6
2005-07-19 09:21:22 51°14.148 2°55.407 335.2 9.9 330 13.5
2005-07-19 09:22:22 51°14.279 2°55.236 318.6 10.4 314 13.1
2005-07-19 09:23:21 51°14.417 2°55.029 330.5 12.2 335 12.9
2005-07-19 09:24:21 51°14.624 2°54.921 337.6 13.4 340 12.2
2005-07-19 09:25:22 51°14.824 2°54.821 338.9 11.9 343 11.7
2005-07-19 09:26:22 51°15.01 2°54.729 338.9 11.6 343 11.3
2005-07-19 09:27:22 51°15.195 2°54.639 339.6 11.7 343 11
2005-07-19 09:28:22 51°15.386 2°54.564 343.7 11.9 348 11.9
2005-07-19 09:29:22 51°15.58 2°54.491 343.7 12 347 12.4
2005-07-19 09:30:21 51°15.76 2°54.434 343.9 9.8 350 12.7
2005-07-19 09:31:22 51°15.919 2°54.386 343.4 9.4 349 13.6
2005-07-19 09:32:22 51°16.045 2°54.358 342.6 6.3 356 13.8
2005-07-19 09:33:22 51°16.133 2°54.36 342.4 4.8 5 14.2
2005-07-19 09:34:22 51°16.202 2°54.359 329.9 3.4 -999 14.2
2005-07-19 09:35:21 51°16.245 2°54.369 312.4 2.2 15 14
2005-07-19 09:36:21 51°16.274 2°54.38 289.1 1.4 4 14.2
2005-07-19 09:37:22 51°16.28 2°54.378 238.9 0.5 212 14.1
2005-07-19 09:38:22 51°16.265 2°54.367 239.9 1.1 220 14
2005-07-19 09:39:21 51°16.262 2°54.342 258.1 1.2 272 14.1
2005-07-19 09:40:21 51°16.254 2°54.321 232.5 0.9 196 14.3
2005-07-19 09:41:22 51°16.248 2°54.319 254.3 0.3 345 14.2
2005-07-19 09:42:21 51°16.256 2°54.317 259.9 0.4 12 14
2005-07-19 09:43:21 51°16.258 2°54.318 248.2 0.1 29 14.1
2005-07-19 09:44:21 51°16.26 2°54.324 253.6 0.7 53 14
2005-07-19 09:45:22 51°16.263 2°54.338 245.3 0.4 81 14
2005-07-19 09:46:21 51°16.263 2°54.345 246.2 0.2 90 14
2005-07-19 09:47:22 51°16.265 2°54.35 247.8 0.2 92 14.2
2005-07-19 09:48:21 51°16.262 2°54.359 239.9 0.3 78 14
2005-07-19 09:49:21 51°16.264 2°54.366 257.2 0.4 47 14.1
2005-07-19 09:50:21 51°16.272 2°54.376 265.2 0.8 31 14
2005-07-19 09:51:22 51°16.281 2°54.384 256.7 0.5 43 14.1
2005-07-19 09:52:21 51°16.287 2°54.385 260.6 0.5 337 14.1
2005-07-19 09:53:21 51°16.298 2°54.372 270.4 0.9 325 14.1
2005-07-19 09:54:21 51°16.303 2°54.347 256 1.2 274 14.1
2005-07-19 09:55:21 51°16.295 2°54.316 242 1.4 229 14
2005-07-19 09:56:21 51°16.283 2°54.296 243.8 1 225 14.2
2005-07-19 09:57:22 51°16.279 2°54.272 256.4 1 270 14.3
2005-07-19 09:58:22 51°16.277 2°54.251 246.2 0.6 238 14.1
2005-07-19 09:59:22 51°16.268 2°54.245 238 0.5 185 14.2
2005-07-19 10:00:22 51°16.261 2°54.252 236.6 0.5 132 14.2
2005-07-19 10:01:22 51°16.257 2°54.269 234.2 0.7 110 14.3
2005-07-19 10:02:22 51°16.258 2°54.295 243.8 1 80 14.2
2005-07-19 10:03:22 51°16.267 2°54.338 239.7 1.9 70 14.3
2005-07-19 10:04:22 51°16.28 2°54.394 226 2.5 71 14.1
2005-07-19 10:05:22 51°16.3 2°54.456 201.3 2.6 61 14.1
2005-07-19 10:06:22 51°16.321 2°54.513 180.2 2.6 59 14.3
2005-07-19 10:07:21 51°16.342 2°54.57 164.1 2.4 62 14.1
2005-07-19 10:08:22 51°16.361 2°54.627 158.3 2.4 63 13.8
2005-07-19 10:09:22 51°16.38 2°54.683 161.1 2.4 63 13.2
2005-07-19 10:10:22 51°16.378 2°54.738 189.6 2.2 135 13.2
2005-07-19 10:11:23 51°16.358 2°54.715 260.2 2.2 267 13.6
2005-07-19 10:12:21 51°16.397 2°54.667 296.1 2.9 328 13.6
2005-07-19 10:13:22 51°16.437 2°54.636 294.8 2.6 336 13.7
2005-07-19 10:14:22 51°16.475 2°54.61 294.9 2.5 338 14
2005-07-19 10:15:21 51°16.513 2°54.587 294.4 2.4 338 14.1
2005-07-19 10:16:22 51°16.548 2°54.566 292.9 2.2 344 14.1
2005-07-19 10:17:22 51°16.585 2°54.551 295.4 2.2 346 14.1
2005-07-19 10:18:21 51°16.62 2°54.54 295.6 2.3 350 14.1
2005-07-19 10:19:22 51°16.657 2°54.535 297.7 2.3 354 14.3
2005-07-19 10:20:22 51°16.693 2°54.527 294.7 2.2 349 14.3
2005-07-19 10:21:22 51°16.729 2°54.516 295.4 2.2 349 14.2
2005-07-19 10:22:22 51°16.766 2°54.508 296.9 2.3 354 14.3
2005-07-19 10:23:22 51°16.805 2°54.505 299.5 2.3 359 14.1
2005-07-19 10:24:22 51°16.832 2°54.49 264.2 1.2 317 14.3
2005-07-19 10:25:22 51°16.778 2°54.472 207.4 6 192 14.3
2005-07-19 10:26:22 51°16.643 2°54.404 205.4 9.2 197 14.3
2005-07-19 10:27:22 51°16.484 2°54.361 200.7 9.7 193 14.2
2005-07-19 10:28:22 51°16.36 2°54.325 203.8 5.8 187 14.2
2005-07-19 10:29:22 51°16.29 2°54.32 203.8 3.9 182 14
2005-07-19 10:30:21 51°16.258 2°54.321 226.3 0.8 134 14.2
2005-07-19 10:31:22 51°16.26 2°54.356 233.7 1.5 79 14.1
2005-07-19 10:32:22 51°16.268 2°54.407 223.6 2.1 73 14
2005-07-19 10:33:21 51°16.282 2°54.467 195.7 2.5 68 14
2005-07-19 10:34:21 51°16.299 2°54.527 173.7 2.8 65 14
2005-07-19 10:35:22 51°16.316 2°54.585 160.7 2.5 65 14.1
2005-07-19 10:36:22 51°16.331 2°54.644 163.9 2.5 66 13.9
2005-07-19 10:37:22 51°16.316 2°54.693 203.3 2.2 145 13.9
2005-07-19 10:38:23 51°16.311 2°54.642 284.1 3.3 298 14
2005-07-19 10:39:22 51°16.383 2°54.499 298.1 8.4 305 13.9
2005-07-19 10:40:22 51°16.457 2°54.298 293.7 8.8 300 14.1
2005-07-19 10:41:22 51°16.534 2°54.097 294.3 9 301 14.3
2005-07-19 10:42:22 51°16.613 2°53.89 294.4 9 302 14.3
2005-07-19 10:43:22 51°16.691 2°53.689 294.9 9.1 302 14.3
2005-07-19 10:44:22 51°16.773 2°53.491 298.3 8.9 302 13.9
2005-07-19 10:45:22 51°16.867 2°53.303 300.6 9.1 308 13
2005-07-19 10:46:22 51°16.957 2°53.105 300.1 9.5 306 11
2005-07-19 10:47:22 51°17.052 2°52.902 305.7 9.7 307 12
2005-07-19 10:48:21 51°17.163 2°52.714 311.5 9.8 316 12.2
2005-07-19 10:49:22 51°17.279 2°52.534 311.3 9.7 315 13
2005-07-19 10:50:22 51°17.397 2°52.349 311.7 9.8 315 13
2005-07-19 10:51:22 51°17.511 2°52.163 310.9 9.9 315 13.1
2005-07-19 10:52:22 51°17.627 2°51.977 311 9.9 315 13.1
2005-07-19 10:53:22 51°17.748 2°51.797 315 9.9 316 12.9
2005-07-19 10:54:22 51°17.882 2°51.635 319.1 10 324 12.9
2005-07-19 10:55:22 51°18.013 2°51.473 318.7 10 322 13.6
2005-07-19 10:56:22 51°18.149 2°51.315 319.3 10.1 324 14.7
2005-07-19 10:57:21 51°18.28 2°51.157 319.1 10.2 323 15.5
2005-07-19 10:58:21 51°18.414 2°50.994 318.6 10.1 324 16
2005-07-19 10:59:21 51°18.531 2°50.918 344.5 5.8 356 16.6
2005-07-19 11:00:22 51°18.573 2°50.949 16.6 1.5 67 16.6
2005-07-19 11:01:23 51°18.578 2°50.986 36 1.6 71 16.8
2005-07-19 11:02:21 51°18.593 2°51.028 41 2 61 16.8
2005-07-19 11:03:23 51°18.611 2°51.074 25.5 2.1 57 16.7
2005-07-19 11:04:22 51°18.632 2°51.117 7.4 2.2 49 16.8
2005-07-19 11:05:21 51°18.651 2°51.156 355.6 1.9 55 17
2005-07-19 11:06:21 51°18.666 2°51.2 351.2 2 63 16.8
2005-07-19 11:07:21 51°18.678 2°51.246 358.5 1.9 68 16.6
2005-07-19 11:08:21 51°18.69 2°51.293 8.5 1.9 66 16.5
2005-07-19 11:09:21 51°18.711 2°51.34 17.6 2.4 48 16.6
2005-07-19 11:10:22 51°18.745 2°51.386 22.6 2.9 39 16.7
2005-07-19 11:11:21 51°18.786 2°51.443 30.8 3.5 41 16.6
2005-07-19 11:12:22 51°18.834 2°51.501 29.6 3.5 37 16.9
2005-07-19 11:13:22 51°18.883 2°51.566 29.3 3.9 37 17
2005-07-19 11:14:22 51°18.935 2°51.625 26.4 3.8 36 16.8
2005-07-19 11:15:22 51°18.988 2°51.688 25.2 3.9 36 17.1
2005-07-19 11:16:22 51°19.041 2°51.747 25.7 3.9 35 17.3
2005-07-19 11:17:22 51°19.093 2°51.808 25.1 4 36 17.3
2005-07-19 11:18:22 51°19.144 2°51.871 38.8 3.8 43 17.3
2005-07-19 11:19:22 51°19.194 2°51.942 33.3 4.2 38 17.7
2005-07-19 11:20:22 51°19.249 2°52.007 28.6 4 38 17.7
2005-07-19 11:21:21 51°19.302 2°52.071 28.3 4.1 39 17.8
2005-07-19 11:22:22 51°19.357 2°52.137 30.5 4.1 40 17.8
2005-07-19 11:23:21 51°19.408 2°52.206 32.8 4.2 40 17.7
2005-07-19 11:24:22 51°19.462 2°52.272 29.4 3.9 39 17.6
2005-07-19 11:25:22 51°19.513 2°52.341 34.7 4.1 41 18
2005-07-19 11:26:22 51°19.56 2°52.442 77.9 5.3 62 18
2005-07-19 11:27:22 51°19.523 2°52.546 173.1 4.7 152 17.5
2005-07-19 11:28:21 51°19.457 2°52.463 238.5 6.1 231 17.7
2005-07-19 11:29:22 51°19.36 2°52.273 231.5 9.7 227 17.5
2005-07-19 11:30:22 51°19.244 2°52.09 229.1 9.9 225 17.2
2005-07-19 11:31:22 51°19.118 2°51.897 229 10.6 225 17.1
2005-07-19 11:32:21 51°18.99 2°51.708 227.1 10.7 223 17.1
2005-07-19 11:33:21 51°18.858 2°51.514 227.1 10.8 223 16.9
2005-07-19 11:34:21 51°18.727 2°51.319 227.2 10.8 224 16.5
2005-07-19 11:35:23 51°18.591 2°51.12 225.7 10.7 222 16.2
2005-07-19 11:36:22 51°18.504 2°50.979 237.4 4.5 233 16.3
2005-07-19 11:37:22 51°18.494 2°50.97 235.3 0.4 105 16.4
2005-07-19 11:38:21 51°18.496 2°50.995 228.8 1.2 75 16.3
2005-07-19 11:39:21 51°18.506 2°51.037 207.2 2 64 16.2
2005-07-19 11:40:21 51°18.524 2°51.082 176.3 1.9 54 15.8
2005-07-19 11:41:21 51°18.542 2°51.122 153.1 1.8 53 16.5
2005-07-19 11:42:23 51°18.558 2°51.166 148.6 1.7 67 16.1
2005-07-19 11:43:23 51°18.571 2°51.208 160.3 1.9 61 16.1
2005-07-19 11:44:22 51°18.583 2°51.25 166.8 1.8 67 16.4
2005-07-19 11:45:22 51°18.594 2°51.292 171.3 1.8 73 16
2005-07-19 11:46:22 51°18.606 2°51.335 173.4 1.7 67 16.3
2005-07-19 11:47:22 51°18.618 2°51.379 168 2 64 16.4
2005-07-19 11:48:22 51°18.63 2°51.423 167.4 1.6 64 16.2
2005-07-19 11:49:22 51°18.645 2°51.465 167.1 2 58 16.4
2005-07-19 11:50:21 51°18.659 2°51.508 166 2 62 16
2005-07-19 11:51:20 51°18.674 2°51.55 164 2.1 56 16.1
2005-07-19 11:52:22 51°18.69 2°51.593 162.2 1.9 59 16.1
2005-07-19 11:53:22 51°18.705 2°51.635 160.3 2 59 16.2
2005-07-19 11:54:22 51°18.722 2°51.68 161.7 1.8 63 16
2005-07-19 11:55:21 51°18.735 2°51.722 165.6 1.8 64 15.9
2005-07-19 11:56:20 51°18.749 2°51.765 168.8 1.9 62 15.8
2005-07-19 11:57:23 51°18.762 2°51.81 168 1.8 64 15.9
2005-07-19 11:58:22 51°18.776 2°51.855 165 1.9 59 15.7
2005-07-19 11:59:21 51°18.79 2°51.898 165.4 1.7 69 15.6
2005-07-19 12:00:21 51°18.802 2°51.939 174.8 1.6 63 15.5
2005-07-19 12:01:21 51°18.818 2°51.979 172.2 1.7 57 15.6
2005-07-19 12:02:22 51°18.834 2°52.022 170.5 1.9 57 15.5
2005-07-19 12:03:21 51°18.852 2°52.061 163.2 1.8 51 15.7
2005-07-19 12:04:22 51°18.87 2°52.1 159.1 1.8 54 15.5
2005-07-19 12:05:22 51°18.889 2°52.14 159.3 1.9 57 15.6
2005-07-19 12:06:22 51°18.906 2°52.179 161.7 1.8 56 15.6
2005-07-19 12:07:22 51°18.922 2°52.218 163.2 1.7 56 15.5
2005-07-19 12:08:22 51°18.939 2°52.257 162.9 1.7 52 15.5
2005-07-19 12:09:21 51°18.957 2°52.294 160.8 1.7 55 15.3
2005-07-19 12:10:21 51°18.974 2°52.332 157.1 1.8 55 15.5
2005-07-19 12:11:23 51°18.989 2°52.372 158.2 1.6 58 15.2
2005-07-19 12:12:22 51°19.003 2°52.413 158.2 1.7 61 15.5
2005-07-19 12:13:22 51°19.017 2°52.454 158.2 1.9 62 15.3
2005-07-19 12:14:22 51°19.029 2°52.495 165.9 1.7 66 15.3
2005-07-19 12:15:22 51°19.041 2°52.539 165.4 1.7 64 15.5
2005-07-19 12:16:22 51°19.053 2°52.58 164.8 1.7 72 15.1
2005-07-19 12:17:21 51°19.064 2°52.622 166.3 1.7 68 15
2005-07-19 12:18:23 51°19.077 2°52.665 167.1 1.7 64 14.9
2005-07-19 12:19:22 51°19.088 2°52.707 169.1 1.7 68 15.2
2005-07-19 12:20:21 51°19.091 2°52.751 173.8 2.1 124 14.6
2005-07-19 12:21:22 51°18.982 2°52.716 201.8 9.6 195 14.2
2005-07-19 12:22:21 51°18.799 2°52.639 199.5 11.9 192 14.1
2005-07-19 12:23:22 51°18.604 2°52.558 199.6 12 193 13.7
2005-07-19 12:24:21 51°18.416 2°52.485 197.8 11.9 193 13.1
2005-07-19 12:25:22 51°18.221 2°52.412 198.8 11.7 195 12.8
2005-07-19 12:26:22 51°18.033 2°52.347 198.1 11.8 192 12.3
2005-07-19 12:27:21 51°17.839 2°52.323 184 12 175 12.4
2005-07-19 12:28:21 51°17.638 2°52.336 184.9 12.1 180 12.3
2005-07-19 12:29:23 51°17.43 2°52.35 180.9 12.2 178 12.1
2005-07-19 12:30:23 51°17.228 2°52.415 172 12.5 162 11.8
2005-07-19 12:31:22 51°17.035 2°52.52 164.8 12.7 157 11.5
2005-07-19 12:32:21 51°16.843 2°52.652 161.6 12.8 154 11.2
2005-07-19 12:33:22 51°16.648 2°52.791 162.8 12.9 157 12.8
2005-07-19 12:34:22 51°16.456 2°52.928 162.8 12.8 155 13.5
2005-07-19 12:35:23 51°16.258 2°53.063 166.4 12.7 161 13.7
2005-07-19 12:36:22 51°16.066 2°53.198 161.9 13 156 13.5
2005-07-19 12:37:22 51°15.873 2°53.346 160.8 12.8 154 12.9
2005-07-19 12:38:22 51°15.682 2°53.497 160.4 12.9 151 12.7
2005-07-19 12:39:23 51°15.488 2°53.651 160 12.9 155 12.2
2005-07-19 12:40:22 51°15.303 2°53.801 158.9 12.5 156 11.3
2005-07-19 12:41:22 51°15.111 2°53.954 160.7 12.7 154 10.8
2005-07-19 12:42:21 51°14.932 2°54.127 155.1 12.8 150 10.4
2005-07-19 12:43:21 51°14.761 2°54.341 146.2 13.4 139 11.1
2005-07-19 12:44:22 51°14.6 2°54.586 139.9 13.3 136 11.5
2005-07-19 12:45:23 51°14.449 2°54.85 135 13.4 130 12
2005-07-19 12:46:22 51°14.329 2°55.135 124.9 12.2 125 11.8
2005-07-19 12:47:23 51°14.214 2°55.349 138.7 10 137 12
2005-07-19 12:48:21 51°14.072 2°55.465 158.2 9.8 156 11.8
2005-07-19 12:49:21 51°13.926 2°55.566 160 9.3 157 12.2
2005-07-19 12:50:21 51°13.813 2°55.642 160.2 6.9 157 11.7
2005-07-19 12:51:22 51°13.729 2°55.746 135.6 6.3 132 12.5
2005-07-19 12:52:23 51°13.673 2°55.868 127.5 5.2 123 10.5
2005-07-19 12:53:22 51°13.641 2°55.98 114.1 4.1 111 10.5
2005-07-19 12:54:22 51°13.623 2°56.046 126.7 1.6 119 9.3
2005-07-19 12:55:21 51°13.621 2°56.049 122.5 0.1 73 9.5
2005-07-19 12:56:22 51°13.622 2°56.051 121.4 -999 18 9.3